createdAt,value
2018-03-21T00:01:17.838Z,18.85
2018-03-21T00:03:46.115Z,19.17
2018-03-21T00:06:14.437Z,19.05
2018-03-21T00:08:42.730Z,19.10
2018-03-21T00:11:10.259Z,18.65
2018-03-21T00:13:37.773Z,19.45
2018-03-21T00:16:05.288Z,18.58
2018-03-21T00:18:32.814Z,19.27
2018-03-21T00:21:01.107Z,19.52
2018-03-21T00:23:28.610Z,19.98
2018-03-21T00:25:56.183Z,19.92
2018-03-21T00:28:23.765Z,18.52
2018-03-21T00:30:52.041Z,19.17
2018-03-21T00:33:20.326Z,18.40
2018-03-21T00:35:48.620Z,20.30
2018-03-21T00:38:16.132Z,19.42
2018-03-21T00:40:43.660Z,18.23
2018-03-21T00:43:11.156Z,19.10
2018-03-21T00:45:38.665Z,20.08
2018-03-21T00:48:06.194Z,19.60
2018-03-21T00:50:34.485Z,20.70
2018-03-21T00:53:02.024Z,19.83
2018-03-21T00:55:30.297Z,20.12
2018-03-21T00:57:58.585Z,19.27
2018-03-21T01:00:26.127Z,19.80
2018-03-21T01:02:54.400Z,20.30
2018-03-21T01:05:21.925Z,19.45
2018-03-21T01:07:49.453Z,18.60
2018-03-21T01:10:16.969Z,19.67
2018-03-21T01:12:44.477Z,20.67
2018-03-21T01:15:12.024Z,19.60
2018-03-21T01:17:39.534Z,19.70
2018-03-21T01:20:07.083Z,20.05
2018-03-21T01:22:34.622Z,20.10
2018-03-21T01:25:02.122Z,21.15
2018-03-21T01:27:29.660Z,20.27
2018-03-21T01:29:57.191Z,21.25
2018-03-21T01:32:24.722Z,20.45
2018-03-21T01:34:53.022Z,20.37
2018-03-21T01:37:20.525Z,21.50
2018-03-21T01:39:48.050Z,19.67
2018-03-21T01:42:15.579Z,21.23
2018-03-21T01:44:43.115Z,21.77
2018-03-21T01:47:11.392Z,21.40
2018-03-21T01:49:39.691Z,21.77
2018-03-21T01:52:07.199Z,22.02
2018-03-21T01:54:34.693Z,22.45
2018-03-21T01:57:02.970Z,21.23
2018-03-21T01:59:31.250Z,21.70
2018-03-21T02:01:59.554Z,21.87
2018-03-21T02:04:27.078Z,21.62
2018-03-21T02:06:54.608Z,20.67
2018-03-21T02:09:22.167Z,21.65
2018-03-21T02:11:49.681Z,22.37
2018-03-21T02:14:17.203Z,21.80
2018-03-21T02:16:44.727Z,22.35
2018-03-21T02:19:12.237Z,24.15
2018-03-21T02:21:40.531Z,21.85
2018-03-21T02:24:08.064Z,23.12
2018-03-21T02:26:36.338Z,23.23
2018-03-21T02:29:04.638Z,23.73
2018-03-21T02:31:32.146Z,23.35
2018-03-21T02:33:59.647Z,24.00
2018-03-21T02:36:27.175Z,25.30
2018-03-21T02:38:54.699Z,24.87
2018-03-21T02:41:22.215Z,24.80
2018-03-21T02:43:50.502Z,24.12
2018-03-21T02:46:18.056Z,25.05
2018-03-21T02:48:46.327Z,24.37
2018-03-21T02:51:14.632Z,24.87
2018-03-21T02:53:42.133Z,23.75
2018-03-21T02:56:09.638Z,23.62
2018-03-21T02:58:37.171Z,23.40
2018-03-21T03:01:05.476Z,24.30
2018-03-21T03:03:32.992Z,24.63
2018-03-21T03:06:00.520Z,22.75
2018-03-21T03:08:28.051Z,24.02
2018-03-21T03:10:55.566Z,23.58
2018-03-21T03:13:23.125Z,23.40
2018-03-21T03:15:50.648Z,24.30
2018-03-21T03:18:18.155Z,22.10
2018-03-21T03:20:45.671Z,21.95
2018-03-21T03:23:13.181Z,22.55
2018-03-21T03:25:41.468Z,21.80
2018-03-21T03:28:09.751Z,23.87
2018-03-21T03:30:37.288Z,24.05
2018-03-21T03:33:05.586Z,23.60
2018-03-21T03:35:33.130Z,25.08
2018-03-21T03:38:01.411Z,24.58
2018-03-21T03:40:29.679Z,23.70
2018-03-21T03:42:57.978Z,23.70
2018-03-21T03:45:25.508Z,23.52
2018-03-21T03:47:53.776Z,23.90
2018-03-21T03:50:21.298Z,22.15
2018-03-21T03:52:48.800Z,23.15
2018-03-21T03:55:17.118Z,22.50
2018-03-21T03:57:44.651Z,23.08
2018-03-21T04:00:12.175Z,23.73
2018-03-21T04:02:39.679Z,23.40
2018-03-21T04:05:07.279Z,22.00
2018-03-21T04:07:34.771Z,23.25
2018-03-21T04:10:02.267Z,20.75
2018-03-21T04:12:29.799Z,22.73
2018-03-21T04:14:58.104Z,21.30
2018-03-21T04:17:25.608Z,22.62
2018-03-21T04:19:53.139Z,22.87
2018-03-21T04:22:20.676Z,21.87
2018-03-21T04:24:48.179Z,21.83
2018-03-21T04:27:15.716Z,20.98
2018-03-21T04:29:43.214Z,21.65
2018-03-21T04:32:10.711Z,22.20
2018-03-21T04:34:38.241Z,22.87
2018-03-21T04:37:06.558Z,21.50
2018-03-21T04:39:34.081Z,22.50
2018-03-21T04:42:02.363Z,21.30
2018-03-21T04:44:30.628Z,22.75
2018-03-21T04:46:58.925Z,19.83
2018-03-21T04:49:26.446Z,22.67
2018-03-21T04:51:53.949Z,21.40
2018-03-21T04:54:21.479Z,26.27
2018-03-21T04:56:49.754Z,38.22
2018-03-21T04:59:18.084Z,37.17
2018-03-21T05:01:45.607Z,44.37
2018-03-21T05:04:13.156Z,40.38
2018-03-21T05:06:41.436Z,57.50
2018-03-21T05:09:09.185Z,48.75
2018-03-21T05:11:37.495Z,43.40
2018-03-21T05:14:05.043Z,36.10
2018-03-21T05:16:32.547Z,32.60
2018-03-21T05:19:00.089Z,25.92
2018-03-21T05:21:27.645Z,25.10
2018-03-21T05:23:55.182Z,22.45
2018-03-21T05:26:22.738Z,22.95
2018-03-21T05:28:50.265Z,22.73
2018-03-21T05:31:17.775Z,21.37
2018-03-21T05:33:45.295Z,25.40
2018-03-21T05:36:13.586Z,24.80
2018-03-21T05:38:41.141Z,24.67
2018-03-21T05:41:08.651Z,24.40
2018-03-21T05:43:36.163Z,26.02
2018-03-21T05:46:03.675Z,23.70
2018-03-21T05:48:31.249Z,25.75
2018-03-21T05:50:59.638Z,24.08
2018-03-21T05:53:27.174Z,22.02
2018-03-21T05:55:54.686Z,22.95
2018-03-21T05:58:22.203Z,23.55
2018-03-21T06:00:49.727Z,23.30
2018-03-21T06:03:17.247Z,22.87
2018-03-21T06:05:44.773Z,21.55
2018-03-21T06:08:12.266Z,22.25
2018-03-21T06:10:40.584Z,23.60
2018-03-21T06:13:08.151Z,24.10
2018-03-21T06:15:35.690Z,22.55
2018-03-21T06:18:03.212Z,24.50
2018-03-21T06:20:31.499Z,22.58
2018-03-21T06:22:59.800Z,22.77
2018-03-21T06:25:27.299Z,23.52
2018-03-21T06:27:54.834Z,24.08
2018-03-21T06:30:22.358Z,22.45
2018-03-21T06:32:49.906Z,24.12
2018-03-21T06:35:18.186Z,24.58
2018-03-21T06:37:45.729Z,23.35
2018-03-21T06:40:14.010Z,23.62
2018-03-21T06:42:42.312Z,22.87
2018-03-21T06:45:09.835Z,22.13
2018-03-21T06:47:37.348Z,22.50
2018-03-21T06:50:04.874Z,21.85
2018-03-21T06:52:32.398Z,22.10
2018-03-21T06:54:59.911Z,21.30
2018-03-21T06:57:27.445Z,21.90
2018-03-21T06:59:54.981Z,21.10
2018-03-21T07:02:22.554Z,21.52
2018-03-21T07:04:50.823Z,23.50
2018-03-21T07:07:19.303Z,22.58
2018-03-21T07:09:46.836Z,21.40
2018-03-21T07:12:14.358Z,22.15
2018-03-21T07:14:53.791Z,21.23
2018-03-21T07:17:21.289Z,21.52
2018-03-21T07:19:48.846Z,20.30
2018-03-21T07:22:16.377Z,18.77
2018-03-21T07:24:43.879Z,18.62
2018-03-21T07:27:11.378Z,18.98
2018-03-21T07:29:38.915Z,18.25
2018-03-21T07:32:07.195Z,19.37
2018-03-21T07:34:35.484Z,19.92
2018-03-21T07:37:03.004Z,19.77
2018-03-21T07:39:30.544Z,22.00
2018-03-21T07:41:58.058Z,22.10
2018-03-21T07:44:26.363Z,19.65
2018-03-21T07:46:53.938Z,18.65
2018-03-21T07:49:21.414Z,18.83
2018-03-21T07:51:48.914Z,19.70
2018-03-21T07:54:16.443Z,19.17
2018-03-21T07:56:43.995Z,16.70
2018-03-21T07:59:11.444Z,17.98
2018-03-21T08:01:38.966Z,16.75
2018-03-21T08:04:06.462Z,17.15
2018-03-21T08:06:33.961Z,15.95
2018-03-21T08:09:01.484Z,16.12
2018-03-21T08:11:28.991Z,16.12
2018-03-21T08:13:56.499Z,15.85
2018-03-21T08:16:24.028Z,15.10
2018-03-21T08:18:51.574Z,15.20
2018-03-21T08:21:19.085Z,14.63
2018-03-21T08:23:46.620Z,13.48
2018-03-21T08:26:14.115Z,14.35
2018-03-21T08:28:41.634Z,13.38
2018-03-21T08:31:09.130Z,12.82
2018-03-21T08:33:36.654Z,13.27
2018-03-21T08:36:04.154Z,13.30
2018-03-21T08:38:31.713Z,11.27
2018-03-21T08:40:59.212Z,9.63
2018-03-21T08:43:26.724Z,10.05
2018-03-21T08:45:54.242Z,9.27
2018-03-21T08:48:21.726Z,9.20
2018-03-21T08:50:49.239Z,8.70
2018-03-21T08:53:16.776Z,9.45
2018-03-21T08:55:44.288Z,9.40
2018-03-21T08:58:11.808Z,9.20
2018-03-21T09:00:39.321Z,9.88
2018-03-21T09:03:06.857Z,9.23
2018-03-21T09:05:34.371Z,9.98
2018-03-21T09:08:01.875Z,9.70
2018-03-21T09:10:29.379Z,10.15
2018-03-21T09:12:56.870Z,9.80
2018-03-21T09:15:24.387Z,10.00
2018-03-21T09:17:52.655Z,9.90
2018-03-21T09:20:20.959Z,9.45
2018-03-21T09:22:48.467Z,9.63
2018-03-21T09:25:16.011Z,10.05
2018-03-21T09:27:43.551Z,9.95
2018-03-21T09:30:11.048Z,9.80
2018-03-21T09:32:38.599Z,9.60
2018-03-21T09:35:06.122Z,9.05
2018-03-21T09:37:33.633Z,9.27
2018-03-21T09:40:01.162Z,8.68
2018-03-21T09:42:28.683Z,6.43
2018-03-21T09:44:56.205Z,7.25
2018-03-21T09:47:24.510Z,6.07
2018-03-21T09:49:52.031Z,7.15
2018-03-21T09:52:19.526Z,6.93
2018-03-21T09:54:47.803Z,7.00
2018-03-21T09:57:15.324Z,6.12
2018-03-21T09:59:42.843Z,6.50
2018-03-21T10:02:10.342Z,7.40
2018-03-21T10:04:37.873Z,6.47
2018-03-21T10:07:05.395Z,7.12
2018-03-21T10:09:32.905Z,7.32
2018-03-21T10:12:00.417Z,7.40
2018-03-21T10:14:27.922Z,8.45
2018-03-21T10:16:55.485Z,7.20
2018-03-21T10:19:23.012Z,8.20
2018-03-21T10:21:50.523Z,7.30
2018-03-21T10:24:18.827Z,7.22
2018-03-21T10:26:46.366Z,7.50
2018-03-21T10:29:14.692Z,8.40
2018-03-21T10:31:42.198Z,8.13
2018-03-21T10:34:10.495Z,8.88
2018-03-21T10:36:38.021Z,8.70
2018-03-21T10:39:06.314Z,8.40
2018-03-21T10:41:34.590Z,8.73
2018-03-21T10:44:02.882Z,9.30
2018-03-21T10:46:30.410Z,9.02
2018-03-21T10:48:57.900Z,9.00
2018-03-21T10:51:25.434Z,8.75
2018-03-21T10:53:53.733Z,8.55
2018-03-21T10:56:22.035Z,8.88
2018-03-21T10:58:49.571Z,9.07
2018-03-21T11:01:22.842Z,8.68
2018-03-21T11:03:55.981Z,8.05
2018-03-21T11:06:23.487Z,7.60
2018-03-21T11:08:51.038Z,7.90
2018-03-21T11:11:18.528Z,7.18
2018-03-21T11:13:46.077Z,7.32
2018-03-21T11:16:14.373Z,6.80
2018-03-21T11:18:41.881Z,5.85
2018-03-21T11:21:09.372Z,5.55
2018-03-21T11:23:37.656Z,5.12
2018-03-21T11:26:05.205Z,5.00
2018-03-21T11:28:33.484Z,5.85
2018-03-21T11:31:01.003Z,5.78
2018-03-21T11:33:28.496Z,6.30
2018-03-21T11:35:56.026Z,6.62
2018-03-21T11:38:23.557Z,6.78
2018-03-21T11:40:51.059Z,7.75
2018-03-21T11:43:19.323Z,8.00
2018-03-21T11:45:46.856Z,7.40
2018-03-21T11:48:14.384Z,6.90
2018-03-21T11:50:41.955Z,8.00
2018-03-21T11:53:09.492Z,7.63
2018-03-21T11:55:37.017Z,7.60
2018-03-21T11:58:04.525Z,6.77
2018-03-21T12:00:32.243Z,6.87
2018-03-21T12:02:59.782Z,7.07
2018-03-21T12:05:27.310Z,6.70
2018-03-21T12:07:54.807Z,6.47
2018-03-21T12:10:22.329Z,6.90
2018-03-21T12:12:49.839Z,6.30
2018-03-21T12:15:18.122Z,6.90
2018-03-21T12:17:46.443Z,7.33
2018-03-21T12:20:13.968Z,7.07
2018-03-21T12:22:42.305Z,6.67
2018-03-21T12:25:09.829Z,5.93
2018-03-21T12:27:37.390Z,6.23
2018-03-21T12:30:04.895Z,6.13
2018-03-21T12:32:32.416Z,6.30
2018-03-21T12:34:59.959Z,6.00
2018-03-21T12:37:27.488Z,6.20
2018-03-21T12:39:55.781Z,5.97
2018-03-21T12:42:23.301Z,5.60
2018-03-21T12:44:50.838Z,5.80
2018-03-21T12:47:18.361Z,5.53
2018-03-21T12:49:45.917Z,5.87
2018-03-21T12:52:13.419Z,6.43
2018-03-21T12:54:40.935Z,6.13
2018-03-21T12:57:08.469Z,5.17
2018-03-21T12:59:35.969Z,5.80
2018-03-21T13:02:03.501Z,5.57
2018-03-21T13:04:31.783Z,6.20
2018-03-21T13:06:59.318Z,6.80
2018-03-21T13:09:26.890Z,5.70
2018-03-21T13:11:55.160Z,5.10
2018-03-21T13:14:23.468Z,5.23
2018-03-21T13:16:51.006Z,5.13
2018-03-21T13:19:19.281Z,5.33
2018-03-21T13:21:47.667Z,5.27
2018-03-21T13:24:15.932Z,5.30
2018-03-21T13:26:44.207Z,6.07
2018-03-21T13:29:12.495Z,6.20
2018-03-21T13:31:40.798Z,5.80
2018-03-21T13:34:08.327Z,5.07
2018-03-21T13:36:36.623Z,5.10
2018-03-21T13:39:04.129Z,5.30
2018-03-21T13:41:31.655Z,5.93
2018-03-21T13:43:59.187Z,5.10
2018-03-21T13:46:26.700Z,5.40
2018-03-21T13:48:54.320Z,5.43
2018-03-21T13:51:21.906Z,5.30
2018-03-21T13:53:49.465Z,5.17
2018-03-21T13:56:17.007Z,4.83
2018-03-21T13:58:44.512Z,5.30
2018-03-21T14:01:12.135Z,4.80
2018-03-21T14:03:39.656Z,5.03
2018-03-21T14:06:07.190Z,5.20
2018-03-21T14:08:34.752Z,5.27
2018-03-21T14:11:02.882Z,5.00
2018-03-21T14:13:30.374Z,4.90
2018-03-21T14:15:57.946Z,5.20
2018-03-21T14:18:26.276Z,4.60
2018-03-21T14:20:53.799Z,5.50
2018-03-21T14:23:22.118Z,4.93
2018-03-21T14:25:49.651Z,4.37
2018-03-21T14:28:17.164Z,5.07
2018-03-21T14:30:44.707Z,4.50
2018-03-21T14:33:12.376Z,5.00
2018-03-21T14:35:40.003Z,4.77
2018-03-21T14:38:07.733Z,4.87
2018-03-21T14:40:36.021Z,5.20
2018-03-21T14:43:03.547Z,4.63
2018-03-21T14:45:31.120Z,4.50
2018-03-21T14:47:58.606Z,4.37
2018-03-21T14:50:26.118Z,5.07
2018-03-21T14:52:53.639Z,4.77
2018-03-21T14:55:21.170Z,3.77
2018-03-21T14:57:49.466Z,4.53
2018-03-21T15:00:17.006Z,4.50
2018-03-21T15:02:45.267Z,4.77
2018-03-21T15:05:13.540Z,5.00
2018-03-21T15:07:41.060Z,4.40
2018-03-21T15:10:08.629Z,4.37
2018-03-21T15:12:36.161Z,4.10
2018-03-21T15:15:03.702Z,4.90
2018-03-21T15:17:31.236Z,4.10
2018-03-21T15:19:59.528Z,4.73
2018-03-21T15:22:27.906Z,4.87
2018-03-21T15:24:55.435Z,4.20
2018-03-21T15:27:22.974Z,4.40
2018-03-21T15:29:50.489Z,4.00
2018-03-21T15:32:18.806Z,4.57
2018-03-21T15:34:46.339Z,4.30
2018-03-21T15:37:13.883Z,4.53
2018-03-21T15:39:41.485Z,4.37
2018-03-21T15:42:09.010Z,4.13
2018-03-21T15:44:36.532Z,4.77
2018-03-21T15:47:04.075Z,4.17
2018-03-21T15:49:31.608Z,5.00
2018-03-21T15:51:59.144Z,3.90
2018-03-21T15:54:26.678Z,4.50
2018-03-21T15:56:54.981Z,4.77
2018-03-21T15:59:22.505Z,4.70
2018-03-21T16:01:50.040Z,4.00
2018-03-21T16:04:17.551Z,4.40
2018-03-21T16:06:45.078Z,4.50
2018-03-21T16:09:12.612Z,4.30
2018-03-21T16:11:40.131Z,4.47
2018-03-21T16:14:07.628Z,5.30
2018-03-21T16:16:35.157Z,4.97
2018-03-21T16:19:03.459Z,5.37
2018-03-21T16:21:30.990Z,4.30
2018-03-21T16:23:58.519Z,4.40
2018-03-21T16:26:26.803Z,3.63
2018-03-21T16:28:55.104Z,4.13
2018-03-21T16:31:22.603Z,4.20
2018-03-21T16:33:50.143Z,4.20
2018-03-21T16:36:17.681Z,3.93
2018-03-21T16:38:45.971Z,4.73
2018-03-21T16:41:14.314Z,4.27
2018-03-21T16:43:42.880Z,4.00
2018-03-21T16:46:11.194Z,3.60
2018-03-21T16:48:38.723Z,3.90
2018-03-21T16:51:07.008Z,3.23
2018-03-21T16:53:35.318Z,3.40
2018-03-21T16:56:02.848Z,3.60
2018-03-21T16:58:30.421Z,4.70
2018-03-21T17:00:57.968Z,5.10
2018-03-21T17:03:26.926Z,6.00
2018-03-21T17:05:54.448Z,3.53
2018-03-21T17:08:21.967Z,4.50
2018-03-21T17:10:50.282Z,4.60
2018-03-21T17:13:17.795Z,4.50
2018-03-21T17:15:46.107Z,5.65
2018-03-21T17:18:13.610Z,5.72
2018-03-21T17:20:41.115Z,4.67
2018-03-21T17:23:08.643Z,4.82
2018-03-21T17:25:36.947Z,4.17
2018-03-21T17:28:04.463Z,4.03
2018-03-21T17:30:31.996Z,3.45
2018-03-21T17:32:59.580Z,4.28
2018-03-21T17:35:27.107Z,3.97
2018-03-21T17:37:54.627Z,3.47
2018-03-21T17:40:22.914Z,4.22
2018-03-21T17:42:50.434Z,3.65
2018-03-21T17:45:17.951Z,3.67
2018-03-21T17:47:45.489Z,2.80
2018-03-21T17:50:13.016Z,3.22
2018-03-21T17:52:40.564Z,3.90
2018-03-21T17:55:08.121Z,3.78
2018-03-21T17:57:35.696Z,3.20
2018-03-21T18:00:03.232Z,4.35
2018-03-21T18:02:30.770Z,3.92
2018-03-21T18:04:58.274Z,3.90
2018-03-21T18:07:26.618Z,4.00
2018-03-21T18:09:54.178Z,4.60
2018-03-21T18:12:21.696Z,4.05
2018-03-21T18:14:49.231Z,4.03
2018-03-21T18:17:16.751Z,4.53
2018-03-21T18:19:44.284Z,4.47
2018-03-21T18:22:11.809Z,3.75
2018-03-21T18:24:40.091Z,4.18
2018-03-21T18:27:08.407Z,4.20
2018-03-21T18:29:35.967Z,4.03
2018-03-21T18:32:03.506Z,3.40
2018-03-21T18:34:31.007Z,4.12
2018-03-21T18:36:58.554Z,3.90
2018-03-21T18:39:26.103Z,3.78
2018-03-21T18:41:53.654Z,4.57
2018-03-21T18:44:21.166Z,4.68
2018-03-21T18:46:48.736Z,5.00
2018-03-21T18:49:17.055Z,5.80
2018-03-21T18:51:44.555Z,4.72
2018-03-21T18:54:12.110Z,5.05
2018-03-21T18:56:39.648Z,4.72
2018-03-21T18:59:07.282Z,4.80
2018-03-21T19:01:34.806Z,5.15
2018-03-21T19:04:03.137Z,4.90
2018-03-21T19:06:30.733Z,4.70
2018-03-21T19:08:58.334Z,5.40
2018-03-21T19:11:25.867Z,6.00
2018-03-21T19:13:54.165Z,5.50
2018-03-21T19:16:21.799Z,5.75
2018-03-21T19:18:49.669Z,6.47
2018-03-21T19:21:17.270Z,5.62
2018-03-21T19:23:44.833Z,5.18
2018-03-21T19:26:13.250Z,5.90
2018-03-21T19:28:41.034Z,5.45
2018-03-21T19:31:09.328Z,5.72
2018-03-21T19:33:37.698Z,5.95
2018-03-21T19:36:06.049Z,6.18
2018-03-21T19:38:33.621Z,6.82
2018-03-21T19:41:01.205Z,6.60
2018-03-21T19:43:29.516Z,6.78
2018-03-21T19:45:57.095Z,6.35
2018-03-21T19:48:24.592Z,6.80
2018-03-21T19:50:52.924Z,6.90
2018-03-21T19:53:20.507Z,6.57
2018-03-21T19:55:48.039Z,6.30
2018-03-21T19:58:15.560Z,6.78
2018-03-21T20:00:43.126Z,6.25
2018-03-21T20:03:10.681Z,5.97
2018-03-21T20:05:38.279Z,6.20
2018-03-21T20:08:05.750Z,4.72
2018-03-21T20:10:33.315Z,4.90
2018-03-21T20:13:01.628Z,5.00
2018-03-21T20:15:29.972Z,5.03
2018-03-21T20:17:57.503Z,5.65
2018-03-21T20:20:25.057Z,5.28
2018-03-21T20:22:52.605Z,5.15
2018-03-21T20:25:20.184Z,5.35
2018-03-21T20:27:47.727Z,5.97
2018-03-21T20:30:15.290Z,5.40
2018-03-21T20:32:42.815Z,4.70
2018-03-21T20:35:11.117Z,4.35
2018-03-21T20:37:38.641Z,4.53
2018-03-21T20:40:06.978Z,5.32
2018-03-21T20:42:34.554Z,4.93
2018-03-21T20:45:02.072Z,6.32
2018-03-21T20:47:29.603Z,5.05
2018-03-21T20:49:57.896Z,5.72
2018-03-21T20:52:25.426Z,6.20
2018-03-21T20:54:53.749Z,7.22
2018-03-21T20:57:21.275Z,6.47
2018-03-21T20:59:49.612Z,6.28
2018-03-21T21:02:17.154Z,6.90
2018-03-21T21:04:44.699Z,7.03
2018-03-21T21:07:12.242Z,6.20
2018-03-21T21:09:39.746Z,6.10
2018-03-21T21:12:07.289Z,6.03
2018-03-21T21:14:34.807Z,5.53
2018-03-21T21:17:03.087Z,6.25
2018-03-21T21:19:30.640Z,5.93
2018-03-21T21:21:58.952Z,5.95
2018-03-21T21:24:26.485Z,6.72
2018-03-21T21:26:54.771Z,17.65
2018-03-21T21:29:22.306Z,20.90
2018-03-21T21:31:50.611Z,18.48
2018-03-21T21:34:18.134Z,12.30
2018-03-21T21:36:46.456Z,13.40
2018-03-21T21:39:14.018Z,15.70
2018-03-21T21:41:41.536Z,13.90
2018-03-21T21:44:09.849Z,10.82
2018-03-21T21:46:37.360Z,8.43
2018-03-21T21:49:04.874Z,7.82
2018-03-21T21:51:32.410Z,6.87
2018-03-21T21:53:59.940Z,7.07
2018-03-21T21:56:27.520Z,7.40
2018-03-21T21:58:55.812Z,6.43
2018-03-21T22:01:23.323Z,6.43
2018-03-21T22:03:50.910Z,6.30
2018-03-21T22:06:19.215Z,6.97
2018-03-21T22:08:46.741Z,6.90
2018-03-21T22:11:14.276Z,8.07
2018-03-21T22:13:41.808Z,7.80
2018-03-21T22:16:09.320Z,6.93
2018-03-21T22:18:37.627Z,7.65
2018-03-21T22:21:05.151Z,7.72
2018-03-21T22:23:33.447Z,7.15
2018-03-21T22:26:01.746Z,7.10
2018-03-21T22:28:29.310Z,7.68
2018-03-21T22:30:56.863Z,7.15
2018-03-21T22:33:24.392Z,7.30
2018-03-21T22:35:52.696Z,7.00
2018-03-21T22:38:20.212Z,7.30
2018-03-21T22:40:47.741Z,8.07
2018-03-21T22:43:15.245Z,8.05
2018-03-21T22:45:43.525Z,8.13
2018-03-21T22:48:11.820Z,7.30
2018-03-21T22:50:39.342Z,7.35
2018-03-21T22:53:07.638Z,7.70
2018-03-21T22:55:35.164Z,7.95
2018-03-21T22:58:02.687Z,7.10
2018-03-21T23:00:30.212Z,7.55
2018-03-21T23:02:58.487Z,7.72
2018-03-21T23:05:26.751Z,7.65
2018-03-21T23:07:55.066Z,8.13
2018-03-21T23:10:22.615Z,7.47
2018-03-21T23:12:50.143Z,8.35
2018-03-21T23:15:17.678Z,8.23
2018-03-21T23:17:45.209Z,7.80
2018-03-21T23:20:12.717Z,7.70
2018-03-21T23:22:41.003Z,6.87
2018-03-21T23:25:09.286Z,8.10
2018-03-21T23:27:37.604Z,7.70
2018-03-21T23:30:05.113Z,8.70
2018-03-21T23:32:33.406Z,7.10
2018-03-21T23:35:00.950Z,7.53
2018-03-21T23:37:29.236Z,7.85
2018-03-21T23:39:56.772Z,8.20
2018-03-21T23:42:24.321Z,8.23
2018-03-21T23:44:51.887Z,6.97
2018-03-21T23:47:19.404Z,7.95
2018-03-21T23:49:46.923Z,7.53
2018-03-21T23:52:15.224Z,7.22
2018-03-21T23:54:42.753Z,8.05
2018-03-21T23:57:11.064Z,7.75
2018-03-21T23:59:38.609Z,7.97
